Freeborn, Missouri
Current Conditions -  °F | °C
As of 2:53 AM on Saturday 22 Nov 2014 (Local Time) from KPOF Reporting Station
Scattered Clouds Scattered Clouds  
Wind Chill: 34°   Ceiling: Unl
Heat Index: 38°   Visibility: 7mi
Dew Point: 35°   Wind: 5mph
Humidity: 89%   Direction: 340°NNW
Pressure: 30.22"   Gusts: NA
Location:  36.4408°N, 89.9914°W
Report Text: KPOF 220853Z AUTO 34004KT 7SM SCT070 03/02 A3022 RMK AO2 SLP239 T00330017 56011
Loading
Personal Weather Stations






























Interactive Weather Map New forecast layout! Learn more

10-Day Weather Forecast

Advertisements
Track Severe Weather on mobile